KSYM

Morehead-Rowan County Clyde A Thomas Regional Airport

Morehead, Kentucky, USA
METAR KSYM 232255Z AUTO 24008G14KT 10SM FEW040 OVC047 05/M03 A3002 RMK AO2
Observed Flight Rules
Jan-23 @ 22:55 UTC (22 minutes ago) Visual Flight Rules
Wind Visibility Clouds
240° at 8 knots
 Gusting to 14 knots
10 miles
  • Few at 4,000' AGL
  • Overcast at 4,700' AGL
Temperatures Readings
Current 5°C / 41°F
Dewpoint -3°C / 27°F
Humidity 57%
Altimeter 30.02" Hg
Pressure 1017 hPa
Elevation 313
METAR KSYM 232255Z AUTO 24008G14KT 10SM FEW040 OVC047 05/M03 A3002 RMK AO2
Observed Flight Rules
Jan-23 @ 22:55 UTC
(22 minutes ago)
VFR
Wind Visibility
240° at 8 knots
 Gusting to 14 knots
10 miles
Clouds
  • Few at 4,000' AGL
  • Overcast at 4,700' AGL
Temperature Dewpoint
5°C / 41°F -3°C / 27°F
Humidity Altimeter Pressure
57% 30.02" Hg 1017 hPa